Time;durP1;ratioP1;P1;durP2;ratioP2;P2;SDS_P1;SDS_P2;PMS_P1;PMS_P2;Temp;Humidity;BMP_temperature;BMP_pressure;BME280_temperature;BME280_humidity;BME280_pressure;Samples;Min_cycle;Max_cycle;Signal;HPM_P1;HPM_P2
2022/12/30 00:07:38;;;;;;;17.65;4.03;;;;;;;;;;21342366;27;20049;-62
2022/12/30 00:38:22;;;;;;;10.75;2.97;;;;;;;;;;21339488;27;20046;-60
2022/12/30 00:58:44;;;;;;;8.70;2.90;;;;;;;;;;21337917;27;20157;-61
2022/12/30 01:08:46;;;;;;;9.98;2.40;;;;;;;;;;21337273;27;20506;-60
2022/12/30 01:18:49;;;;;;;6.75;1.25;;;;;;;;;;21336986;27;20190;-62
2022/12/30 01:28:51;;;;;;;6.57;1.70;;;;;;;;;;21335191;27;20058;-62
2022/12/30 01:38:53;;;;;;;8.85;1.20;;;;;;;;;;21334804;27;20042;-61
2022/12/30 01:48:57;;;;;;;6.40;1.10;;;;;;;;;;21335707;27;20048;-60
2022/12/30 01:59:06;;;;;;;7.15;1.45;;;;;;;;;;21334109;27;20055;-59
2022/12/30 02:09:08;;;;;;;4.35;1.33;;;;;;;;;;21343774;27;20064;-61
2022/12/30 02:19:25;;;;;;;7.68;1.02;;;;;;;;;;21350853;27;20125;-61
2022/12/30 02:29:43;;;;;;;9.20;1.67;;;;;;;;;;21349632;27;20122;-60
2022/12/30 02:39:51;;;;;;;6.80;1.33;;;;;;;;;;21348637;27;20387;-61
2022/12/30 03:21:14;;;;;;;6.97;0.80;;;;;;;;;;21346195;27;20047;-61
2022/12/30 03:31:18;;;;;;;4.10;0.98;;;;;;;;;;21344488;27;20085;-60
2022/12/30 03:41:23;;;;;;;7.25;1.17;;;;;;;;;;21344084;27;20047;-62
2022/12/30 03:51:27;;;;;;;5.43;1.13;;;;;;;;;;21343909;27;20043;-60
2022/12/30 04:01:36;;;;;;;4.20;0.97;;;;;;;;;;21342262;27;20464;-61
2022/12/30 04:11:39;;;;;;;8.27;0.98;;;;;;;;;;21341903;27;20475;-60
2022/12/30 04:21:42;;;;;;;4.82;0.90;;;;;;;;;;21341941;27;20479;-61
2022/12/30 04:31:45;;;;;;;4.25;1.38;;;;;;;;;;21339267;27;20045;-60
2022/12/30 04:41:48;;;;;;;15.15;1.50;;;;;;;;;;21339797;27;20402;-60
2022/12/30 04:51:51;;;;;;;5.03;1.20;;;;;;;;;;21338725;27;20042;-60
2022/12/30 05:01:54;;;;;;;4.20;1.00;;;;;;;;;;21337610;27;20047;-60
2022/12/30 05:11:56;;;;;;;5.20;1.33;;;;;;;;;;21336834;27;20050;-61
2022/12/30 05:21:58;;;;;;;7.93;1.23;;;;;;;;;;21335799;27;20111;-60
2022/12/30 05:32:00;;;;;;;6.35;0.95;;;;;;;;;;21335460;27;20047;-60
2022/12/30 05:42:02;;;;;;;7.03;1.17;;;;;;;;;;21334477;27;20460;-60
2022/12/30 05:52:04;;;;;;;8.20;1.17;;;;;;;;;;21334898;27;20121;-59
2022/12/30 06:02:06;;;;;;;5.50;1.02;;;;;;;;;;21333452;27;20054;-60
2022/12/30 06:12:08;;;;;;;7.38;1.30;;;;;;;;;;21334061;27;20070;-59
2022/12/30 06:22:11;;;;;;;4.00;0.93;;;;;;;;;;21332171;27;20046;-59
2022/12/30 06:32:12;;;;;;;7.60;1.08;;;;;;;;;;21333591;27;20483;-61
2022/12/30 06:42:14;;;;;;;7.85;1.02;;;;;;;;;;21332768;27;20101;-61
2022/12/30 06:52:16;;;;;;;3.92;1.23;;;;;;;;;;21338330;27;20502;-60
2022/12/30 07:02:24;;;;;;;19.30;8.38;;;;;;;;;;21347443;27;20069;-59
2022/12/30 07:12:26;;;;;;;7.35;1.70;;;;;;;;;;21347094;27;20050;-59
2022/12/30 07:22:28;;;;;;;4.72;1.92;;;;;;;;;;21345426;27;20052;-60
2022/12/30 07:32:30;;;;;;;4.13;1.42;;;;;;;;;;21344919;27;20414;-60
2022/12/30 07:42:32;;;;;;;7.05;1.15;;;;;;;;;;21344425;27;20431;-61
2022/12/30 07:52:34;;;;;;;4.47;1.50;;;;;;;;;;21343412;27;20406;-61
2022/12/30 08:02:38;;;;;;;14.00;1.92;;;;;;;;;;21322496;27;20050;-61
2022/12/30 08:12:40;;;;;;;5.03;1.38;;;;;;;;;;21341971;27;20069;-61
2022/12/30 08:22:42;;;;;;;5.20;1.45;;;;;;;;;;21340552;27;20047;-61
2022/12/30 08:32:44;;;;;;;8.57;1.63;;;;;;;;;;21339675;27;20050;-62
2022/12/30 08:42:46;;;;;;;5.25;1.52;;;;;;;;;;21339615;27;20133;-59
2022/12/30 08:52:47;;;;;;;6.10;1.45;;;;;;;;;;21338670;27;20456;-61
2022/12/30 09:02:49;;;;;;;3.65;1.05;;;;;;;;;;21337300;27;20078;-60
2022/12/30 09:12:51;;;;;;;3.72;1.23;;;;;;;;;;21336035;27;20039;-60
2022/12/30 09:22:53;;;;;;;5.82;1.20;;;;;;;;;;21321100;27;20085;-61
2022/12/30 09:32:55;;;;;;;6.57;1.88;;;;;;;;;;21236300;27;20070;-63
2022/12/30 09:43:16;;;;;;;3.92;1.55;;;;;;;;;;21247820;27;20099;-61
2022/12/30 09:53:21;;;;;;;5.28;1.30;;;;;;;;;;21239914;27;20097;-63
2022/12/30 10:03:28;;;;;;;5.72;1.38;;;;;;;;;;21245035;28;20043;-65
2022/12/30 10:13:30;;;;;;;6.40;1.50;;;;;;;;;;21247782;28;20103;-65
2022/12/30 10:23:42;;;;;;;11.40;2.33;;;;;;;;;;21246933;27;20482;-65
2022/12/30 10:33:45;;;;;;;7.25;1.10;;;;;;;;;;21263550;27;20610;-62
2022/12/30 10:43:59;;;;;;;2.40;0.98;;;;;;;;;;21263083;27;20051;-64
2022/12/30 10:54:01;;;;;;;79.90;13.38;;;;;;;;;;21261523;27;20047;-66
2022/12/30 11:04:04;;;;;;;30.48;6.15;;;;;;;;;;21260121;27;20061;-69
2022/12/30 11:24:37;;;;;;;9.75;2.50;;;;;;;;;;21258931;27;20065;-65
2022/12/30 11:34:40;;;;;;;6.68;2.28;;;;;;;;;;21256977;27;20043;-63
2022/12/30 11:44:41;;;;;;;7.80;1.70;;;;;;;;;;21255862;27;20047;-69
2022/12/30 11:54:44;;;;;;;6.00;1.65;;;;;;;;;;21238740;27;20123;-63
2022/12/30 12:04:46;;;;;;;6.45;2.15;;;;;;;;;;21256968;27;20505;-64
2022/12/30 12:14:58;;;;;;;5.57;1.50;;;;;;;;;;21218153;27;20483;-65
2022/12/30 12:25:03;;;;;;;4.05;1.02;;;;;;;;;;21175452;27;20055;-63
2022/12/30 12:35:16;;;;;;;8.32;1.77;;;;;;;;;;21167516;28;20047;-62
2022/12/30 12:45:21;;;;;;;8.63;1.45;;;;;;;;;;21166941;28;20053;-65
2022/12/30 12:55:26;;;;;;;4.78;1.00;;;;;;;;;;21166163;27;20047;-63
2022/12/30 13:05:34;;;;;;;4.35;1.00;;;;;;;;;;21232254;27;20043;-65
2022/12/30 13:16:05;;;;;;;5.03;1.03;;;;;;;;;;21251544;27;20078;-59
2022/12/30 13:26:07;;;;;;;5.18;1.33;;;;;;;;;;21233260;27;20047;-60
2022/12/30 13:36:14;;;;;;;2.85;0.70;;;;;;;;;;21251396;27;20055;-63
2022/12/30 13:46:20;;;;;;;10.18;1.27;;;;;;;;;;21250262;27;20047;-62
2022/12/30 13:56:33;;;;;;;5.00;1.40;;;;;;;;;;21255453;27;20086;-63
2022/12/30 14:06:42;;;;;;;6.47;1.33;;;;;;;;;;21350126;27;20162;-60
2022/12/30 14:16:45;;;;;;;8.57;1.60;;;;;;;;;;21352112;27;20078;-59
2022/12/30 14:26:47;;;;;;;8.43;1.70;;;;;;;;;;21350079;27;20050;-61
2022/12/30 14:36:56;;;;;;;8.38;1.30;;;;;;;;;;21350578;27;20046;-60
2022/12/30 14:47:03;;;;;;;4.07;1.45;;;;;;;;;;21349846;27;20043;-60
2022/12/30 14:57:16;;;;;;;6.28;1.30;;;;;;;;;;21348620;27;20050;-59
2022/12/30 15:07:26;;;;;;;5.85;1.88;;;;;;;;;;21350030;27;20134;-60
2022/12/30 15:17:33;;;;;;;8.57;2.20;;;;;;;;;;21295723;27;20504;-64
2022/12/30 15:27:37;;;;;;;3.17;1.23;;;;;;;;;;21249040;27;20096;-73
2022/12/30 15:37:39;;;;;;;8.23;1.45;;;;;;;;;;21245118;27;20444;-71
2022/12/30 15:47:41;;;;;;;6.20;1.42;;;;;;;;;;21235606;27;20119;-65
2022/12/30 15:57:43;;;;;;;10.77;2.03;;;;;;;;;;21248226;27;20059;-66
2022/12/30 16:07:45;;;;;;;3.88;1.42;;;;;;;;;;21249463;27;20144;-67
2022/12/30 16:17:53;;;;;;;6.50;1.30;;;;;;;;;;21248940;27;20674;-71
2022/12/30 16:27:55;;;;;;;4.03;1.17;;;;;;;;;;21253627;27;20043;-63
2022/12/30 16:38:02;;;;;;;11.32;2.38;;;;;;;;;;21249142;27;20149;-69
2022/12/30 16:48:07;;;;;;;6.20;2.42;;;;;;;;;;21210416;27;20044;-67
2022/12/30 16:58:12;;;;;;;10.27;2.15;;;;;;;;;;21165804;27;20090;-71
2022/12/30 17:08:16;;;;;;;13.05;4.32;;;;;;;;;;21221511;27;20134;-65
2022/12/30 17:18:18;;;;;;;6.43;2.47;;;;;;;;;;21202418;27;20050;-71
2022/12/30 17:28:20;;;;;;;4.50;1.77;;;;;;;;;;21172650;27;20047;-69
2022/12/30 17:38:22;;;;;;;7.40;1.17;;;;;;;;;;21164436;28;20138;-67
2022/12/30 17:48:24;;;;;;;4.97;2.03;;;;;;;;;;21164428;28;20092;-69
2022/12/30 17:58:25;;;;;;;5.55;1.60;;;;;;;;;;21163430;28;20133;-69
2022/12/30 18:08:28;;;;;;;7.65;1.98;;;;;;;;;;21163882;28;20411;-71
2022/12/30 18:18:31;;;;;;;5.30;1.33;;;;;;;;;;21163380;28;20410;-69
2022/12/30 18:28:32;;;;;;;3.90;1.70;;;;;;;;;;21162813;28;20472;-70
2022/12/30 18:38:35;;;;;;;5.93;1.35;;;;;;;;;;21162051;28;20107;-69
2022/12/30 18:48:36;;;;;;;6.85;1.88;;;;;;;;;;21167283;28;20495;-67
2022/12/30 18:58:38;;;;;;;8.73;2.45;;;;;;;;;;21176970;28;20413;-69
2022/12/30 19:08:41;;;;;;;5.65;2.55;;;;;;;;;;21176559;28;20079;-68
2022/12/30 19:18:43;;;;;;;6.50;2.45;;;;;;;;;;21175726;28;20539;-69
2022/12/30 19:28:46;;;;;;;5.38;1.98;;;;;;;;;;21174547;28;20564;-69
2022/12/30 19:38:48;;;;;;;4.95;2.33;;;;;;;;;;21173510;28;20050;-68
2022/12/30 19:48:50;;;;;;;5.40;2.85;;;;;;;;;;21171899;28;20043;-69
2022/12/30 19:58:52;;;;;;;11.25;3.45;;;;;;;;;;21171892;28;20135;-69
2022/12/30 20:08:55;;;;;;;8.20;3.88;;;;;;;;;;21171044;28;20047;-71
2022/12/30 20:18:58;;;;;;;15.07;3.50;;;;;;;;;;21170079;28;20055;-69
2022/12/30 20:29:04;;;;;;;12.05;4.10;;;;;;;;;;21169843;28;20162;-68
2022/12/30 20:39:07;;;;;;;11.75;5.70;;;;;;;;;;21169459;28;20094;-71
2022/12/30 20:49:09;;;;;;;9.65;4.47;;;;;;;;;;21167442;28;20109;-70
2022/12/30 20:59:12;;;;;;;9.88;5.00;;;;;;;;;;21167055;28;20478;-69
2022/12/30 21:09:16;;;;;;;14.68;3.95;;;;;;;;;;21165756;28;20044;-72
2022/12/30 21:19:20;;;;;;;8.38;4.00;;;;;;;;;;21165426;28;20419;-72
2022/12/30 21:29:22;;;;;;;9.93;3.40;;;;;;;;;;21146920;28;20044;-70
2022/12/30 22:10:40;;;;;;;7.18;3.30;;;;;;;;;;21164009;28;20048;-72
2022/12/30 22:20:43;;;;;;;10.98;2.88;;;;;;;;;;21163194;28;20052;-72
2022/12/30 22:31:05;;;;;;;9.73;3.03;;;;;;;;;;21164192;28;20048;-70
2022/12/30 22:41:08;;;;;;;5.70;2.42;;;;;;;;;;21179861;28;20414;-68
2022/12/30 22:51:12;;;;;;;7.88;3.50;;;;;;;;;;21184289;28;20071;-66
2022/12/30 23:01:15;;;;;;;9.52;3.67;;;;;;;;;;21181488;28;20108;-66
2022/12/30 23:11:19;;;;;;;8.68;2.95;;;;;;;;;;21176475;28;20047;-68
2022/12/30 23:21:22;;;;;;;5.40;2.75;;;;;;;;;;21176259;28;20070;-71
2022/12/30 23:31:25;;;;;;;5.65;2.65;;;;;;;;;;21175013;28;20118;-71
2022/12/30 23:41:27;;;;;;;8.77;2.25;;;;;;;;;;21174631;28;20097;-69
2022/12/30 23:51:29;;;;;;;6.70;2.42;;;;;;;;;;21176287;28;20048;-70
